Delta Virtual Airport Information Service

Greensboro Piedmont Triad International Airport

ICAO: KGSO Country: United States
Latitude: 36.0978 Longitude: -79.9373
Latest Arrival : FDX632371 (KMIA-KGSO) Latest Departure : FDX632371 (KGSO-KEWR)


WX CaptureLIVE
Data provided by noaa.gov | Fetched at 21:05:44

METAR : KGSO 250154Z 00000KT 10SM BKN044 OVC095 21/18 A2997 RMK AO2 SLP139 T02110178

TAF : KGSO 250124Z 2501/2524 VRB03KT P6SM VCSH SCT040 BKN080 FM250600 05005KT 6SM -RA OVC015 FM250800 05008G16KT 4SM -RA BR OVC007 FM251200 04011KT 2SM -RA BR OVC004 FM251900 05008KT 3SM -DZ OVC003


Runway Data for KGSO
Data provided by openaviationdata.com

Runway ID Mag Var Hdg Length Elevation Surface ILS Freq ILS Id ILS Slope
5 -6 51° 10000 ft 892 ft Asphalt 111.9 ILZY 3
14 -6 141° 6381 ft 892 ft Asphalt 109.9 IGSO 2
23 -6 231° 10000 ft 892 ft Asphalt 109.3 IHIH 3
32 -6 321° 6381 ft 892 ft Asphalt -- -- --

Greensboro Piedmont Triad International Airport, United States
Use only for reference purposes



Not for navigational purposes.